Latest Weather Observations for Armidale Airport

IDN60801

Issued at 10:32 am EDT Sunday 29 March 2015 (issued every 30 minutes, with the page automatically refreshed every 10 minutes)

About weather observations | Map of weather stations | Latest weather observations for NSW | Other Formats
Station Details ID: 056238 Name: ARMIDALE AIRPORT AWS Lat: -30.53 Lon: 151.62 Height: 1079.0 m
Data from the previous 72 hours. | See also: Recent months for locations in New South Wales
Date/Time
EDT
Temp
°C
App
Temp
°C
Dew
Point
Rel
Hum
%
Delta-T
°C
Wind Press
QNH
hPa
Press
MSL
hPa
Rain
since 9 am
mm
Dir
 
Spd
km/h
Gust
km/h
Spd
kts
Gust
kts
29/10:30am 18.3 15.5 11.4 64 4.0 NNW 17 24 9 13 1026.8 1022.1 0.0
29/10:00am 17.4 16.7 12.1 71 3.1 NW 7 20 4 11 1027.2 1022.6 0.0
29/09:30am 15.6 15.2 12.4 81 1.9 NE 6 9 3 5 1027.0 1022.4 0.0
29/09:00am 14.5 13.6 12.7 89 1.0 ENE 9 11 5 6 1026.7 1022.0 0.0
29/08:30am 13.7 12.7 13.4 98 0.2 E 11 13 6 7 1026.0 1021.3 0.0
29/08:00am 12.2 11.1 12.0 99 0.1 ESE 9 11 5 6 1025.7 1021.0 0.0
29/07:30am 10.5 8.2 10.3 99 0.1 E 13 15 7 8 1025.1 1020.4 0.0
29/07:00am 10.0 7.2 9.9 99 0.1 E 15 17 8 9 1024.7 1020.0 0.0
29/06:30am 9.9 6.7 9.9 100 0.0 ENE 17 19 9 10 1024.4 1019.6 0.0
29/06:00am 9.9 7.1 9.9 100 0.0 E 15 17 8 9 1024.0 1019.3 0.0
29/05:30am 9.9 7.0 9.8 99 0.1 ENE 15 15 8 8 1023.9 1019.2 0.0
29/05:00am 10.4 7.7 10.4 100 0.0 E 15 17 8 9 1023.7 1019.0 0.0
29/04:30am 10.6 7.6 10.6 100 0.0 E 17 20 9 11 1023.6 1018.9 0.0
29/04:00am 10.7 7.7 10.7 100 0.0 E 17 20 9 11 1023.5 1018.7 0.0
29/03:30am 10.7 8.1 10.7 100 0.0 E 15 19 8 10 1023.5 1018.7 0.0
29/03:00am 10.8 7.8 10.8 100 0.0 E 17 20 9 11 1023.7 1019.0 0.0
29/02:30am 11.1 8.2 10.9 99 0.1 E 17 20 9 11 1023.8 1019.1 0.0
29/02:00am 11.1 8.6 10.9 99 0.1 E 15 17 8 9 1024.1 1019.4 0.0
29/01:30am 11.2 8.3 11.0 99 0.1 E 17 19 9 10 1024.2 1019.5 0.0
29/01:00am 11.3 8.8 11.1 99 0.1 E 15 17 8 9 1024.6 1019.9 0.0
29/12:30am 11.5 8.7 11.3 99 0.1 E 17 20 9 11 1024.6 1019.9 0.0
29/12:22am 11.6 8.4 11.4 99 0.1 E 19 22 10 12 1024.6 1019.9 0.0
29/12:04am 12.0 8.9 11.7 98 0.2 ENE 19 24 10 13 1024.6 1019.9 0.0
29/12:00am 12.0 9.0 11.8 99 0.1 ENE 19 24 10 13 1024.7 1020.0 0.0
 
Date/Time
EDT
Temp
°C
App
Temp
°C
Dew
Point
Rel
Hum
%
Delta-T
°C
Wind Press
QNH
hPa
Press
MSL
hPa
Rain
since 9 am
mm
Dir
 
Spd
km/h
Gust
km/h
Spd
kts
Gust
kts
28/11:30pm 11.3 8.0 11.0 98 0.2 ENE 19 20 10 11 1024.9 1020.2 0.0
28/11:00pm 11.2 8.1 10.4 95 0.4 ENE 17 19 9 10 1025.4 1020.7 0.0
28/10:30pm 11.7 8.9 10.1 90 0.9 E 15 17 8 9 1025.5 1020.8 0.0
28/10:00pm 11.9 9.4 9.6 86 1.2 E 13 17 7 9 1025.6 1020.9 0.0
28/09:30pm 12.7 9.8 9.5 81 1.7 E 15 19 8 10 1025.4 1020.7 0.0
28/09:00pm 13.1 9.5 9.7 80 1.8 ENE 19 20 10 11 1024.8 1020.1 0.0
28/08:30pm 13.7 10.7 9.4 75 2.3 ENE 15 20 8 11 1024.6 1019.9 0.0
28/08:00pm 14.9 12.2 9.1 68 3.1 ESE 13 17 7 9 1023.9 1019.2 0.0
28/07:30pm 15.9 12.9 7.9 59 4.2 ESE 13 17 7 9 1023.4 1018.6 0.0
28/07:00pm 18.3 13.7 -3.8 22 9.4 SW 11 13 6 7 1022.9 1018.2 0.0
28/06:30pm 21.4 17.3 -3.1 19 10.9 W 9 13 5 7 1022.7 1017.9 0.0
28/06:00pm 23.1 18.2 -3.3 17 11.9 W 13 20 7 11 1022.6 1017.8 0.0
28/05:30pm 23.5 18.1 -4.6 15 12.4 WNW 15 24 8 13 1022.5 1017.7 0.0
28/05:00pm 23.4 17.8 -6.5 13 12.7 WNW 15 19 8 10 1022.5 1017.7 0.0
28/04:30pm 23.9 18.2 -7.2 12 13.1 W 15 24 8 13 1022.4 1017.6 0.0
28/04:00pm 24.1 17.5 -9.4 10 13.5 WNW 19 32 10 17 1022.5 1017.7 0.0
28/03:30pm 23.9 17.2 -10.9 9 13.7 WNW 19 30 10 16 1022.6 1017.8 0.0
28/03:00pm 23.9 17.6 -10.9 9 13.7 WNW 17 24 9 13 1022.7 1017.9 0.0
28/02:30pm 24.1 18.0 -8.2 11 13.4 W 17 28 9 15 1022.9 1018.2 0.0
28/02:00pm 23.7 18.3 -4.4 15 12.4 W 15 22 8 12 1023.1 1018.4 0.0
28/01:30pm 23.3 18.1 -5.7 14 12.5 NW 13 28 7 15 1023.4 1018.6 0.0
28/01:00pm 22.7 17.4 -7.1 13 12.4 W 13 22 7 12 1023.8 1019.1 0.0
28/12:30pm 22.5 17.6 -7.3 13 12.4 NW 11 19 6 10 1024.0 1019.3 0.0
28/12:00pm 21.3 16.6 -4.7 17 11.2 NW 11 20 6 11 1024.4 1019.6 0.0
28/11:30am 20.2 16.4 -1.0 24 9.8 NE 9 17 5 9 1024.8 1020.1 0.0
28/11:00am 19.4 15.2 -1.1 25 9.3 ENE 11 17 6 9 1025.0 1020.3 0.0
28/10:30am 18.0 14.1 -1.8 26 8.8 ENE 9 15 5 8 1025.1 1020.4 0.0
28/10:00am 16.7 11.5 -0.1 32 7.6 E 17 20 9 11 1025.1 1020.4 0.0
28/09:30am 15.5 10.6 -0.7 33 7.2 ENE 15 20 8 11 1025.2 1020.6 0.0
28/09:00am 13.4 8.9 -0.3 39 6.0 ENE 13 15 7 8 1024.9 1020.2 0.0
28/08:30am 12.6 9.3 2.2 49 4.8 ENE 9 11 5 6 1024.4 1019.6 0.0
28/08:00am 9.4 6.7 2.5 62 3.1 NE 6 9 3 5 1024.0 1019.3 0.0
28/07:30am 6.1 2.8 0.0 65 2.5 NE 7 9 4 5 1023.7 1019.0 0.0
28/07:00am 5.6 1.8 -1.1 62 2.7 NE 9 11 5 6 1023.4 1018.6 0.0
28/06:30am 5.6 1.7 -1.3 61 2.8 NE 9 11 5 6 1023.2 1018.5 0.0
28/06:00am 6.0 2.1 -1.6 58 3.0 NE 9 11 5 6 1023.0 1018.3 0.0
28/05:30am 5.8 1.9 -1.8 58 3.0 NE 9 9 5 5 1022.7 1017.9 0.0
28/05:00am 5.0 1.0 -2.1 60 2.7 NE 9 11 5 6 1022.4 1017.6 0.0
28/04:30am 8.3 6.2 -1.0 52 3.8 CALM 0 0 0 0 1022.2 1017.5 0.0
28/04:00am 7.9 5.7 -1.3 52 3.7 CALM 0 0 0 0 1022.4 1017.6 0.0
28/03:30am 9.0 6.6 -2.9 43 4.7 CALM 0 0 0 0 1022.5 1017.7 0.0
28/03:00am 9.2 5.8 -2.1 45 4.6 NW 6 6 3 3 1022.7 1017.9 0.0
28/02:30am 9.2 5.8 -2.4 44 4.7 NW 6 6 3 3 1023.0 1018.3 0.0
28/02:00am 7.9 4.3 -3.3 45 4.3 N 6 7 3 4 1023.2 1018.5 0.0
28/01:30am 8.7 5.9 -2.9 44 4.6 WNW 2 6 1 3 1023.4 1018.6 0.0
28/01:00am 9.4 5.0 -2.5 43 4.8 W 11 11 6 6 1023.2 1018.5 0.0
28/12:30am 9.2 4.7 -3.0 42 4.9 WSW 11 13 6 7 1023.4 1018.6 0.0
28/12:00am 10.5 6.4 -2.8 39 5.4 W 9 11 5 6 1023.7 1019.0 0.0
 
Date/Time
EDT
Temp
°C
App
Temp
°C
Dew
Point
Rel
Hum
%
Delta-T
°C
Wind Press
QNH
hPa
Press
MSL
hPa
Rain
since 9 am
mm
Dir
 
Spd
km/h
Gust
km/h
Spd
kts
Gust
kts
27/11:30pm 11.2 7.5 -3.3 36 5.9 W 7 9 4 5 1023.7 1019.0 0.0
27/11:00pm 11.7 6.9 -2.9 36 6.0 SW 13 13 7 7 1023.8 1019.1 0.0
27/10:30pm 12.0 7.5 -3.0 35 6.1 WSW 11 11 6 6 1023.8 1019.1 0.0
27/10:00pm 11.3 6.9 -2.8 37 5.7 WSW 11 13 6 7 1023.8 1019.1 0.0
27/09:30pm 11.7 7.2 -3.2 35 6.1 W 11 13 6 7 1023.8 1019.1 0.0
27/09:00pm 12.4 7.9 -3.4 33 6.4 W 11 13 6 7 1023.7 1019.0 0.0
27/08:30pm 11.5 7.0 -3.4 35 6.0 W 11 13 6 7 1023.6 1018.9 0.0
27/08:00pm 11.5 6.6 -3.4 35 6.0 WSW 13 15 7 8 1023.1 1018.4 0.0
27/07:30pm 14.1 9.2 -3.6 29 7.3 W 13 17 7 9 1022.7 1017.9 0.0
27/07:00pm 15.8 10.8 -4.2 25 8.3 W 13 15 7 8 1022.2 1017.5 0.0
27/06:30pm 19.5 13.7 -4.7 19 10.3 W 17 20 9 11 1022.0 1017.3 0.0
27/06:00pm 20.9 14.5 -5.0 17 11.1 W 20 26 11 14 1021.8 1017.0 0.0
27/05:30pm 22.0 15.5 -5.8 15 11.8 WNW 20 28 11 15 1021.5 1016.7 0.0
27/05:00pm 22.6 16.3 -6.2 14 12.2 W 19 30 10 16 1021.3 1016.5 0.0
27/04:30pm 23.3 16.8 -5.7 14 12.5 W 20 28 11 15 1021.3 1016.5 0.0
27/04:00pm 23.3 17.5 -8.8 11 13.0 W 15 28 8 15 1021.3 1016.5 0.0
27/03:30pm 22.6 16.0 -7.2 13 12.4 W 20 32 11 17 1021.6 1016.8 0.0
27/03:00pm 23.0 15.8 -9.0 11 12.9 WSW 22 32 12 17 1021.8 1017.0 0.0
27/02:30pm 22.8 16.0 -11.7 9 13.2 W 19 30 10 16 1021.9 1017.2 0.0
27/02:00pm 22.8 16.0 -5.2 15 12.1 WSW 22 33 12 18 1022.1 1017.4 0.0
27/01:30pm 22.6 15.5 -8.2 12 12.6 W 22 33 12 18 1022.4 1017.6 0.0
27/01:00pm 21.8 15.4 -5.1 16 11.5 W 20 32 11 17 1022.8 1018.1 0.0
27/12:30pm 20.9 14.6 -3.6 19 10.8 WNW 20 30 11 16 1023.0 1018.3 0.0
27/12:00pm 21.1 14.3 -4.9 17 11.1 W 22 28 12 15 1023.2 1018.5 0.0
27/11:30am 20.1 14.5 -2.9 21 10.2 W 17 26 9 14 1023.5 1018.7 0.0
27/11:00am 18.9 13.4 -2.1 24 9.3 W 17 24 9 13 1023.7 1019.0 0.0
27/10:30am 18.1 13.5 -0.7 28 8.6 WNW 13 19 7 10 1023.7 1019.0 0.0
27/10:00am 16.5 13.0 1.0 35 7.2 NW 9 13 5 7 1023.9 1019.2 0.0
27/09:30am 15.2 11.8 1.7 40 6.3 W 9 11 5 6 1023.8 1019.1 0.0
27/09:00am 13.9 10.8 1.2 42 5.8 NW 7 9 4 5 1023.8 1019.1 0.0
27/08:30am 12.9 10.8 1.9 47 5.1 N 2 6 1 3 1023.8 1019.1 0.0
27/08:00am 10.8 8.2 3.4 60 3.4 NNE 6 7 3 4 1023.4 1018.6 0.0
27/07:30am 7.0 3.4 0.9 65 2.6 N 9 9 5 5 1023.2 1018.5 0.0
27/07:00am 6.5 3.2 0.4 65 2.5 N 7 9 4 5 1022.9 1018.2 0.0
27/06:30am 7.5 5.7 0.9 63 2.8 CALM 0 0 0 0 1022.5 1017.7 0.0
27/06:00am 7.6 4.7 1.2 64 2.8 W 6 6 3 3 1022.2 1017.5 0.0
27/05:30am 6.8 3.5 0.3 63 2.7 WNW 7 9 4 5 1022.0 1017.3 0.0
27/05:00am 8.1 4.5 0.6 59 3.2 WNW 9 11 5 6 1021.9 1017.2 0.0
27/04:30am 8.6 5.0 0.8 58 3.4 W 9 11 5 6 1021.8 1017.0 0.0
27/04:00am 8.7 4.8 0.9 58 3.4 W 11 13 6 7 1021.8 1017.0 0.0
27/03:30am 8.7 4.4 1.1 59 3.3 W 13 15 7 8 1021.8 1017.0 0.0
27/03:00am 8.9 4.6 1.3 59 3.3 W 13 17 7 9 1021.9 1017.2 0.0
27/02:30am 9.2 5.0 1.4 58 3.4 W 13 15 7 8 1022.2 1017.5 0.0
27/02:00am 9.7 5.4 1.1 55 3.8 W 13 15 7 8 1022.6 1017.8 0.0
27/01:30am 10.0 6.1 0.9 53 4.0 W 11 13 6 7 1022.7 1017.9 0.0
27/01:00am 11.1 7.1 0.5 48 4.6 W 11 11 6 6 1022.8 1018.1 0.0
27/12:30am 11.6 7.5 0.1 45 5.0 W 11 13 6 7 1022.8 1018.1 0.0
27/12:00am 12.5 9.2 0.0 42 5.5 W 7 9 4 5 1022.9 1018.2 0.0
 
Date/Time
EDT
Temp
°C
App
Temp
°C
Dew
Point
Rel
Hum
%
Delta-T
°C
Wind Press
QNH
hPa
Press
MSL
hPa
Rain
since 9 am
mm
Dir
 
Spd
km/h
Gust
km/h
Spd
kts
Gust
kts
26/11:30pm 13.0 8.9 0.1 41 5.7 W 11 13 6 7 1022.9 1018.2 0.0
26/11:00pm 13.0 9.4 0.4 42 5.6 W 9 11 5 6 1023.0 1018.3 0.0
26/10:30pm 14.2 11.0 -0.3 37 6.4 W 6 9 3 5 1023.0 1018.3 0.0
26/10:00pm 13.2 10.0 0.6 42 5.6 W 7 9 4 5 1023.1 1018.4 0.0
26/09:30pm 14.6 11.3 0.1 37 6.5 WNW 7 11 4 6 1023.0 1018.3 0.0
26/09:00pm 15.4 11.0 0.4 36 6.8 W 13 13 7 7 1022.9 1018.2 0.0
26/08:30pm 17.0 13.4 0.6 33 7.6 W 9 11 5 6 1022.5 1017.7 0.0
26/08:00pm 16.2 12.4 1.5 37 6.9 WSW 11 13 6 7 1022.1 1017.4 0.0
26/07:30pm 17.5 13.5 3.0 38 7.1 W 13 15 7 8 1021.6 1016.8 0.0
26/07:00pm 20.6 16.9 4.2 34 8.3 WNW 13 19 7 10 1021.3 1016.5 0.0
26/06:30pm 22.4 17.6 4.9 32 9.1 WNW 19 28 10 15 1020.8 1016.0 0.0
26/06:00pm 23.3 17.1 4.3 29 9.9 WNW 26 33 14 18 1020.6 1015.8 0.0
26/05:30pm 23.8 16.4 4.2 28 10.2 W 32 39 17 21 1020.4 1015.6 0.0
26/05:05pm 25.0 18.3 5.7 29 10.4 WNW 30 48 16 26 1020.4 1015.6 0.0
26/05:00pm 24.4 16.9 4.7 28 10.4 WNW 33 48 18 26 1020.3 1015.5 0.0
26/04:30pm 24.4 17.7 5.7 30 10.0 WNW 30 39 16 21 1020.1 1015.3 0.0
26/04:00pm 26.0 19.2 7.1 30 10.5 WNW 32 44 17 24 1020.1 1015.3 0.0
26/03:36pm 25.6 19.3 5.8 28 10.7 WNW 28 46 15 25 1020.1 1015.3 0.0
26/03:30pm 25.2 18.7 6.4 30 10.3 WNW 30 39 16 21 1020.3 1015.5 0.0
26/03:00pm 24.6 17.8 6.8 32 9.7 WNW 32 44 17 24 1020.6 1015.8 0.0
26/02:30pm 25.1 19.0 6.8 31 10.0 NW 28 43 15 23 1020.8 1016.0 0.0
26/02:00pm 25.4 19.1 7.5 32 9.9 WNW 30 43 16 23 1021.0 1016.2 0.0
26/01:30pm 24.2 18.8 7.8 35 9.1 W 26 41 14 22 1021.5 1016.7 0.0
26/01:00pm 23.5 17.5 7.2 35 8.9 W 28 43 15 23 1021.9 1017.2 0.0
26/12:30pm 23.6 16.5 5.5 31 9.6 WNW 32 43 17 23 1022.0 1017.3 0.0
26/12:00pm 22.8 15.7 5.3 32 9.2 WNW 32 41 17 22 1022.6 1017.8 0.0
26/11:30am 23.2 16.9 7.3 36 8.7 WNW 30 39 16 21 1022.5 1017.7 0.0
26/11:00am 22.9 17.0 7.4 37 8.5 WNW 28 39 15 21 1022.6 1017.8 0.0

Other Formats:

Comma delimited format used in spreadsheet applications
http://www.bom.gov.au/fwo/IDN60801/IDN60801.95773.axf

JavaScript Object Notation format (JSON) in row-major order
http://www.bom.gov.au/fwo/IDN60801/IDN60801.95773.json